GGOV Airport Information

Runway Information
Runway 03 Length 10499 ft width 148 ft
Elevation 129 ft Threshold 0 ft Heading 19
Runway 21 Length 10499 ft Width 148 ft
Elevation 86 ft Threshold 0 ft Heading 199
Airport Frequencies
Type A/G Name A/G VOICE Frequency 343.2 MHZ
Type APP Name APP Frequency 123.9 MHZ
Type TWR Name TWR Frequency 124.3 MHZ
Airport Navaids
Type VOR-DME Name Bissau/Oswaldo Vieira Frequency 114300 KHZ
Type NDB Name Bissau/Oswaldo Vieira Frequency 325 KHZ
Airport Weather Information & NOTAM
ADDS - METARS form results

(1126 UTC 17 July 2018)
 
METAR text: GGOV 171100Z 25008KT 220V290 9999 SCT005 BKN014 29/24 Q1012 NOSIG
Conditions at: GGOV (BISSAU (CIV/MIL), GW) observed 1100 UTC 17 July 2018
Temperature: 29.0°C (84°F)
Dewpoint: 24.0°C (75°F) [RH = 74%]
Pressure (altimeter): 29.88 inches Hg (1012.0 mb)
Winds: from the WSW (250 degrees) at 9 MPH (8 knots; 4.2 m/s)
Visibility: 6 or more miles (10+ km)
Ceiling: 1400 feet AGL
Clouds: scattered clouds at 500 feet AGL
broken clouds at 1400 feet AGL
Weather: no significant weather observed at this time